Terminal Aerodrome Forecast
Issued by NWS Paducah, KY

Home | Current Version | Previous Version | Text Only | Print | Product List | Glossary On
Versions: 1 2 3 4 5 6 7 8 9 10 11 12 13 14 15 16 17 18 19 20 21 22 23 24
731
FTUS43 KPAH 262339
TAFEVV
TAF
KEVV 262339Z 2700/2724 04012G22KT P6SM BKN130
      TEMPO 2700/2701 34010G22KT -SHRA SCT060 BKN110
     FM270200 10008G13KT P6SM BKN035 OVC120
     FM271100 18010G18KT P6SM -SHRA BKN035 OVC080
     FM271300 17013G23KT P6SM BKN035 BKN200
      TEMPO 2721/2724 -SHRA BKN035=

USA.gov is the U.S. government's official web portal to all federal, state and local government web resources and services.